Main page
METAR-TAF:

METAR-TAF

Airports :

Kristianstad Airport

Kristianstad, Sweden

latitude: 55-55N, longitude: 014-05E, elevation: 23 m

Current weather observation

The report was made 30 minutes ago, at 03:50 UTC
Wind 10 kt from the Southeast
Temperature 2°C
Humidity 100%
Pressure 990 hPa
Visibility: 7000 m
light rain

METAR: ESMK 250350Z AUTO 14010KT 7000 -RA OVC005/// 02/02 Q0990

Time: 05:20 (04:20 UTC)

Forecast

The report was made 11 hours and 15 minutes ago, at 17:05 UTC
Forecast valid from 24 at 18 UTC to 24 at 20 UTC
Wind 10 kt from the West/Southwest
Visibility 10 km or more
Broken clouds at a height of 2500 ft
Becoming
from 24 at 18 UTC to 24 at 20 UTC
Wind 8 kt from the South

TAF: ESMK 241705Z 2418/2420 24010KT 9999 BKN025 BECMG 2418/2420 18008KT

Weather observations and forecasts of more than 4000 airports (METAR and TAF reports).

The available stations are represented by yellow and red dots on the map.

Hover mouse over dot to see the name of the station.

Then click to see weather observations and forecasts.

To change the map : click on the green buttons with a black cross to zoom in, on the green button with a dash to zoom out, or on the green arrows for adjacent maps.


METAR-TAF: